createdAt,value
2022-09-09T00:01:21.596Z,17.65
2022-09-09T00:03:57.783Z,21.17
2022-09-09T00:07:14.167Z,22.40
2022-09-09T00:10:14.718Z,20.75
2022-09-09T00:13:06.665Z,17.52
2022-09-09T00:15:51.687Z,17.27
2022-09-09T00:18:21.978Z,17.65
2022-09-09T00:20:59.522Z,15.52
2022-09-09T00:23:31.400Z,19.48
2022-09-09T00:26:28.957Z,19.17
2022-09-09T00:29:11.183Z,22.65
2022-09-09T00:31:39.042Z,19.65
2022-09-09T00:34:13.799Z,23.55
2022-09-09T00:36:43.016Z,14.93
2022-09-09T00:39:37.193Z,15.05
2022-09-09T00:42:19.439Z,16.40
2022-09-09T00:44:49.702Z,17.17
2022-09-09T00:47:36.158Z,17.45
2022-09-09T00:50:25.615Z,16.35
2022-09-09T00:53:02.216Z,16.83
2022-09-09T00:55:41.967Z,17.52
2022-09-09T00:58:10.725Z,18.40
2022-09-09T01:00:44.198Z,17.42
2022-09-09T01:03:38.317Z,18.95
2022-09-09T01:06:33.535Z,18.92
2022-09-09T01:09:25.378Z,19.55
2022-09-09T01:12:17.725Z,21.33
2022-09-09T01:15:12.777Z,18.13
2022-09-09T01:18:05.426Z,21.23
2022-09-09T01:20:53.471Z,22.33
2022-09-09T01:23:35.269Z,18.60
2022-09-09T01:26:27.513Z,24.08
2022-09-09T01:28:57.549Z,24.80
2022-09-09T01:32:00.183Z,23.15
2022-09-09T01:34:41.274Z,21.30
2022-09-09T01:37:13.352Z,19.83
2022-09-09T01:39:45.539Z,19.05
2022-09-09T01:42:17.597Z,25.48
2022-09-09T01:44:46.570Z,20.63
2022-09-09T01:47:16.057Z,25.05
2022-09-09T01:50:15.887Z,23.13
2022-09-09T01:52:47.198Z,20.98
2022-09-09T01:55:17.199Z,21.63
2022-09-09T01:58:10.273Z,21.10
2022-09-09T02:01:01.195Z,28.17
2022-09-09T02:03:30.146Z,24.73
2022-09-09T02:06:38.175Z,24.15
2022-09-09T02:09:20.315Z,22.15
2022-09-09T02:11:50.431Z,25.30
2022-09-09T02:14:34.860Z,26.65
2022-09-09T02:17:10.947Z,23.85
2022-09-09T02:20:08.402Z,21.55
2022-09-09T02:22:51.144Z,23.17
2022-09-09T02:25:23.642Z,22.73
2022-09-09T02:27:52.965Z,25.23
2022-09-09T02:30:21.693Z,23.55
2022-09-09T02:33:00.734Z,22.77
2022-09-09T02:35:45.082Z,25.60
2022-09-09T02:38:17.224Z,21.67
2022-09-09T02:40:56.285Z,25.27
2022-09-09T02:43:25.108Z,21.27
2022-09-09T02:46:23.365Z,24.15
2022-09-09T02:49:06.948Z,20.65
2022-09-09T02:52:09.914Z,21.75
2022-09-09T02:54:42.604Z,17.83
2022-09-09T02:57:17.086Z,18.77
2022-09-09T02:59:48.896Z,24.45
2022-09-09T03:02:16.677Z,19.77
2022-09-09T03:04:51.948Z,25.02
2022-09-09T03:07:22.645Z,20.00
2022-09-09T03:09:52.106Z,23.20
2022-09-09T03:12:19.631Z,18.95
2022-09-09T03:14:47.756Z,22.92
2022-09-09T03:17:15.361Z,20.33
2022-09-09T03:19:51.133Z,23.25
2022-09-09T03:22:18.981Z,19.92
2022-09-09T03:24:48.005Z,24.95
2022-09-09T03:27:16.715Z,23.65
2022-09-09T03:29:45.975Z,23.35
2022-09-09T03:32:18.463Z,23.08
2022-09-09T03:34:48.429Z,28.20
2022-09-09T03:37:18.821Z,22.95
2022-09-09T03:39:46.982Z,26.13
2022-09-09T03:42:19.797Z,19.95
2022-09-09T03:44:53.460Z,23.02
2022-09-09T03:47:24.403Z,29.23
2022-09-09T03:49:56.818Z,25.35
2022-09-09T03:52:26.127Z,28.98
2022-09-09T03:54:54.929Z,24.23
2022-09-09T03:57:22.715Z,23.83
2022-09-09T03:59:51.182Z,25.38
2022-09-09T04:02:18.946Z,21.73
2022-09-09T04:04:46.735Z,24.48
2022-09-09T04:07:14.976Z,22.73
2022-09-09T04:09:42.567Z,22.50
2022-09-09T04:12:14.202Z,21.02
2022-09-09T04:14:41.999Z,25.50
2022-09-09T04:17:09.641Z,21.27
2022-09-09T04:19:38.561Z,20.83
2022-09-09T04:22:06.108Z,19.90
2022-09-09T04:24:34.742Z,21.08
2022-09-09T04:27:02.842Z,19.65
2022-09-09T04:29:31.852Z,24.98
2022-09-09T04:31:59.869Z,20.95
2022-09-09T04:34:27.456Z,24.88
2022-09-09T04:36:56.212Z,22.63
2022-09-09T04:39:24.326Z,22.70
2022-09-09T04:41:52.446Z,22.27
2022-09-09T04:44:20.042Z,21.52
2022-09-09T04:46:48.427Z,29.05
2022-09-09T04:49:16.410Z,22.95
2022-09-09T04:51:44.684Z,29.73
2022-09-09T04:54:12.750Z,23.25
2022-09-09T04:56:44.421Z,24.38
2022-09-09T04:59:13.101Z,25.15
2022-09-09T05:01:47.311Z,25.83
2022-09-09T05:04:17.691Z,22.45
2022-09-09T05:06:45.351Z,28.00
2022-09-09T05:09:14.224Z,27.42
2022-09-09T05:11:42.607Z,28.20
2022-09-09T05:14:25.995Z,23.92
2022-09-09T05:16:53.659Z,30.23
2022-09-09T05:19:22.175Z,25.20
2022-09-09T05:21:51.159Z,26.70
2022-09-09T05:24:24.317Z,28.27
2022-09-09T05:29:22.255Z,29.20
2022-09-09T05:31:50.586Z,26.27
2022-09-09T05:34:21.803Z,26.70
2022-09-09T05:36:50.959Z,28.50
2022-09-09T05:39:19.325Z,26.10
2022-09-09T05:41:47.206Z,22.58
2022-09-09T05:44:14.747Z,31.42
2022-09-09T05:46:42.437Z,28.83
2022-09-09T05:49:09.992Z,28.90
2022-09-09T05:51:38.598Z,25.65
2022-09-09T05:54:11.084Z,30.48
2022-09-09T05:56:43.463Z,28.60
2022-09-09T05:59:12.416Z,30.38
2022-09-09T06:01:43.622Z,26.60
2022-09-09T06:04:21.735Z,30.75
2022-09-09T06:06:50.145Z,29.20
2022-09-09T06:09:19.808Z,26.23
2022-09-09T06:11:47.392Z,29.65
2022-09-09T06:14:16.260Z,27.25
2022-09-09T06:16:47.161Z,27.80
2022-09-09T06:19:21.592Z,31.67
2022-09-09T06:21:51.255Z,31.08
2022-09-09T06:24:20.476Z,29.60
2022-09-09T06:26:48.203Z,30.10
2022-09-09T06:29:25.536Z,30.15
2022-09-09T06:31:54.158Z,30.15
2022-09-09T06:34:24.143Z,35.13
2022-09-09T06:36:58.185Z,31.00
2022-09-09T06:39:26.947Z,34.00
2022-09-09T06:41:54.619Z,36.55
2022-09-09T06:44:42.199Z,25.98
2022-09-09T06:47:14.186Z,28.40
2022-09-09T06:49:48.164Z,27.58
2022-09-09T06:52:16.170Z,30.10
2022-09-09T06:54:46.379Z,27.58
2022-09-09T06:57:35.861Z,29.92
2022-09-09T07:00:04.887Z,32.05
2022-09-09T07:02:32.455Z,27.02
2022-09-09T07:04:59.951Z,27.92
2022-09-09T07:07:28.367Z,37.67
2022-09-09T07:09:57.260Z,32.65
2022-09-09T07:12:24.834Z,32.33
2022-09-09T07:14:57.942Z,29.20
2022-09-09T07:17:25.558Z,25.83
2022-09-09T07:19:53.311Z,34.95
2022-09-09T07:22:22.300Z,29.10
2022-09-09T07:24:50.643Z,27.95
2022-09-09T07:27:18.371Z,30.40
2022-09-09T07:29:46.688Z,32.63
2022-09-09T07:32:14.825Z,29.77
2022-09-09T07:34:42.319Z,28.55
2022-09-09T07:37:12.704Z,28.75
2022-09-09T07:39:42.236Z,26.60
2022-09-09T07:42:12.158Z,31.88
2022-09-09T07:44:40.804Z,33.40
2022-09-09T07:47:14.756Z,28.73
2022-09-09T07:49:49.361Z,26.77
2022-09-09T07:52:21.822Z,31.40
2022-09-09T07:54:54.082Z,29.83
2022-09-09T07:57:22.587Z,31.67
2022-09-09T07:59:51.659Z,32.35
2022-09-09T08:02:19.636Z,36.70
2022-09-09T08:04:47.395Z,31.33
2022-09-09T08:07:17.493Z,35.03
2022-09-09T08:09:52.541Z,29.02
2022-09-09T08:12:24.695Z,31.50
2022-09-09T08:14:55.668Z,28.02
2022-09-09T08:17:24.919Z,31.55
2022-09-09T08:19:52.517Z,30.45
2022-09-09T08:22:25.579Z,33.70
2022-09-09T08:24:53.224Z,31.42
2022-09-09T08:27:21.105Z,31.00
2022-09-09T08:29:49.458Z,33.60
2022-09-09T08:32:18.054Z,30.35
2022-09-09T08:34:46.877Z,28.45
2022-09-09T08:37:21.420Z,28.90
2022-09-09T08:39:53.978Z,29.83
2022-09-09T08:42:39.018Z,29.58
2022-09-09T08:45:17.194Z,29.02
2022-09-09T08:48:09.841Z,29.02
2022-09-09T08:50:42.406Z,32.15
2022-09-09T08:53:31.424Z,30.77
2022-09-09T08:56:03.290Z,32.88
2022-09-09T08:58:50.360Z,27.20
2022-09-09T09:01:47.674Z,25.73
2022-09-09T09:04:35.617Z,28.70
2022-09-09T09:07:13.354Z,23.17
2022-09-09T09:10:03.365Z,26.98
2022-09-09T09:12:41.831Z,24.63
2022-09-09T09:15:20.091Z,24.50
2022-09-09T09:17:49.657Z,27.15
2022-09-09T09:20:24.251Z,27.17
2022-09-09T09:22:56.740Z,25.73
2022-09-09T09:25:34.452Z,22.80
2022-09-09T09:28:18.507Z,22.00
2022-09-09T09:30:55.072Z,22.98
2022-09-09T09:33:26.143Z,24.10
2022-09-09T09:35:54.591Z,18.17
2022-09-09T09:41:14.163Z,23.73
2022-09-09T09:43:46.215Z,23.15
2022-09-09T09:46:27.269Z,18.40
2022-09-09T09:49:09.823Z,19.48
2022-09-09T09:51:39.170Z,25.13
2022-09-09T09:54:14.247Z,21.00
2022-09-09T09:56:44.555Z,19.17
2022-09-09T09:59:23.463Z,18.67
2022-09-09T10:02:13.795Z,19.17
2022-09-09T10:04:42.359Z,21.00
2022-09-09T10:07:18.040Z,22.20
2022-09-09T10:09:46.190Z,22.58
2022-09-09T10:12:23.356Z,23.90
2022-09-09T10:15:29.080Z,24.25
2022-09-09T10:18:14.092Z,21.30
2022-09-09T10:21:11.266Z,24.75
2022-09-09T10:24:09.468Z,21.88
2022-09-09T10:26:52.503Z,24.30
2022-09-09T10:29:44.964Z,22.75
2022-09-09T10:32:37.124Z,20.27
2022-09-09T10:35:40.358Z,20.83
2022-09-09T10:38:22.927Z,21.80
2022-09-09T10:40:57.643Z,17.42
2022-09-09T10:43:43.919Z,17.88
2022-09-09T10:46:40.120Z,21.65
2022-09-09T10:49:47.912Z,15.90
2022-09-09T10:52:22.765Z,16.33
2022-09-09T10:55:03.804Z,17.25
2022-09-09T10:57:46.403Z,19.38
2022-09-09T11:00:21.350Z,12.45
2022-09-09T11:02:57.735Z,14.85
2022-09-09T11:05:31.154Z,15.40
2022-09-09T11:11:41.138Z,14.55
2022-09-09T11:14:26.631Z,15.38
2022-09-09T11:17:00.615Z,14.82
2022-09-09T11:19:37.331Z,16.27
2022-09-09T11:22:20.495Z,12.35
2022-09-09T11:24:55.645Z,12.98
2022-09-09T11:27:46.209Z,13.10
2022-09-09T11:30:56.806Z,13.25
2022-09-09T11:34:03.003Z,16.05
2022-09-09T11:36:51.162Z,14.13
2022-09-09T11:39:40.783Z,13.35
2022-09-09T11:42:20.150Z,11.90
2022-09-09T11:44:47.919Z,12.85
2022-09-09T11:47:30.983Z,11.75
2022-09-09T11:50:16.700Z,11.68
2022-09-09T11:52:47.286Z,11.80
2022-09-09T11:55:35.722Z,13.30
2022-09-09T11:58:10.567Z,11.70
2022-09-09T12:00:43.546Z,12.70
2022-09-09T12:03:49.506Z,10.95
2022-09-09T12:06:34.736Z,11.68
2022-09-09T12:09:16.724Z,13.23
2022-09-09T12:11:44.320Z,10.32
2022-09-09T12:14:42.163Z,11.48
2022-09-09T12:17:31.675Z,11.25
2022-09-09T12:20:32.431Z,11.00
2022-09-09T12:23:06.180Z,9.27
2022-09-09T12:26:05.978Z,8.27
2022-09-09T12:28:42.552Z,9.55
2022-09-09T12:31:31.682Z,11.07
2022-09-09T12:34:18.783Z,9.85
2022-09-09T12:36:54.269Z,11.07
2022-09-09T12:39:36.853Z,8.80
2022-09-09T12:42:05.366Z,10.32
2022-09-09T12:44:33.375Z,11.60
2022-09-09T12:47:04.657Z,15.98
2022-09-09T12:49:37.553Z,12.05
2022-09-09T12:52:15.791Z,10.32
2022-09-09T12:54:49.671Z,11.90
2022-09-09T12:57:17.419Z,10.25
2022-09-09T12:59:49.312Z,11.35
2022-09-09T13:02:21.383Z,12.80
2022-09-09T13:04:51.443Z,10.70
2022-09-09T13:07:20.605Z,10.53
2022-09-09T13:09:50.090Z,10.07
2022-09-09T13:12:20.684Z,18.90
2022-09-09T13:14:51.908Z,11.02
2022-09-09T13:17:25.994Z,7.93
2022-09-09T13:19:54.287Z,9.75
2022-09-09T13:22:28.505Z,10.45
2022-09-09T13:25:26.665Z,9.52
2022-09-09T13:27:56.630Z,11.60
2022-09-09T13:30:27.436Z,12.90
2022-09-09T13:33:23.525Z,13.13
2022-09-09T13:35:57.331Z,10.70
2022-09-09T13:38:27.635Z,10.85
2022-09-09T13:41:07.181Z,14.32
2022-09-09T13:43:43.494Z,11.68
2022-09-09T13:46:32.710Z,9.32
2022-09-09T13:49:23.686Z,19.63
2022-09-09T13:51:54.366Z,15.73
2022-09-09T13:54:22.255Z,17.17
2022-09-09T13:56:50.750Z,13.10
2022-09-09T13:59:30.730Z,10.80
2022-09-09T14:02:10.214Z,12.07
2022-09-09T14:04:37.775Z,8.98
2022-09-09T14:07:05.378Z,11.50
2022-09-09T14:09:32.928Z,12.15
2022-09-09T14:12:01.352Z,17.02
2022-09-09T14:14:29.154Z,9.75
2022-09-09T14:16:56.684Z,10.10
2022-09-09T14:19:24.248Z,11.00
2022-09-09T14:21:51.734Z,10.73
2022-09-09T14:24:19.577Z,10.48
2022-09-09T14:26:47.124Z,11.98
2022-09-09T14:29:14.635Z,12.82
2022-09-09T14:31:42.227Z,11.43
2022-09-09T14:34:11.975Z,10.02
2022-09-09T14:36:39.640Z,13.80
2022-09-09T14:39:07.158Z,10.77
2022-09-09T14:41:35.023Z,8.07
2022-09-09T14:44:02.685Z,6.95
2022-09-09T14:46:30.653Z,7.05
2022-09-09T14:48:58.392Z,7.43
2022-09-09T14:51:28.277Z,7.65
2022-09-09T14:53:59.086Z,6.70
2022-09-09T14:56:30.772Z,4.53
2022-09-09T14:58:59.836Z,6.97
2022-09-09T15:01:28.421Z,9.57
2022-09-09T15:03:59.103Z,8.68
2022-09-09T15:06:30.079Z,5.93
2022-09-09T15:09:01.414Z,7.75
2022-09-09T15:11:35.441Z,10.57
2022-09-09T15:14:03.233Z,8.32
2022-09-09T15:16:31.216Z,7.32
2022-09-09T15:19:00.562Z,5.82
2022-09-09T15:21:33.439Z,7.72
2022-09-09T15:24:01.254Z,9.95
2022-09-09T15:26:30.973Z,5.53
2022-09-09T15:29:00.196Z,6.93
2022-09-09T15:31:31.336Z,7.63
2022-09-09T15:36:35.887Z,8.13
2022-09-09T15:39:05.855Z,7.32
2022-09-09T15:41:33.708Z,8.43
2022-09-09T15:44:02.138Z,8.20
2022-09-09T15:46:34.634Z,10.82
2022-09-09T15:49:31.289Z,10.25
2022-09-09T15:52:03.352Z,8.75
2022-09-09T15:54:34.359Z,7.68
2022-09-09T15:57:05.042Z,10.32
2022-09-09T15:59:34.383Z,8.10
2022-09-09T16:02:02.775Z,11.30
2022-09-09T16:04:30.633Z,9.48
2022-09-09T16:07:04.096Z,8.90
2022-09-09T16:09:33.715Z,7.72
2022-09-09T16:12:02.170Z,8.30
2022-09-09T16:14:35.077Z,7.30
2022-09-09T16:17:04.539Z,8.65
2022-09-09T16:19:32.801Z,6.75
2022-09-09T16:22:00.354Z,5.38
2022-09-09T16:24:28.111Z,4.75
2022-09-09T16:26:55.837Z,4.45
2022-09-09T16:29:24.839Z,3.15
2022-09-09T16:31:52.877Z,3.80
2022-09-09T16:34:21.332Z,6.60
2022-09-09T16:36:49.554Z,7.00
2022-09-09T16:39:19.849Z,2.63
2022-09-09T16:41:49.007Z,5.68
2022-09-09T16:44:19.261Z,3.15
2022-09-09T16:46:49.791Z,3.22
2022-09-09T16:49:17.561Z,5.13
2022-09-09T16:51:50.784Z,3.40
2022-09-09T16:54:19.256Z,8.75
2022-09-09T16:56:49.012Z,7.32
2022-09-09T16:59:19.246Z,6.82
2022-09-09T17:01:48.911Z,7.07
2022-09-09T17:04:22.455Z,3.28
2022-09-09T17:06:51.406Z,6.88
2022-09-09T17:09:19.993Z,3.25
2022-09-09T17:11:48.855Z,4.35
2022-09-09T17:14:18.642Z,4.80
2022-09-09T17:16:47.171Z,5.28
2022-09-09T17:19:15.939Z,8.02
2022-09-09T17:22:00.455Z,8.18
2022-09-09T17:24:31.984Z,7.95
2022-09-09T17:26:59.826Z,5.43
2022-09-09T17:29:27.310Z,4.68
2022-09-09T17:31:56.064Z,5.82
2022-09-09T17:34:24.191Z,6.28
2022-09-09T17:36:52.583Z,4.72
2022-09-09T17:39:20.636Z,4.80
2022-09-09T17:41:48.297Z,3.90
2022-09-09T17:44:16.395Z,7.15
2022-09-09T17:46:46.374Z,6.82
2022-09-09T17:49:16.807Z,6.95
2022-09-09T17:51:45.809Z,12.30
2022-09-09T17:54:17.446Z,8.05
2022-09-09T17:56:45.800Z,7.35
2022-09-09T17:59:15.235Z,7.07
2022-09-09T18:01:45.511Z,4.10
2022-09-09T18:04:15.177Z,8.23
2022-09-09T18:06:45.459Z,7.60
2022-09-09T18:09:15.901Z,6.78
2022-09-09T18:11:45.733Z,8.32
2022-09-09T18:14:18.085Z,8.77
2022-09-09T18:16:47.165Z,6.72
2022-09-09T18:19:17.499Z,7.15
2022-09-09T18:21:45.715Z,5.50
2022-09-09T18:24:15.055Z,8.48
2022-09-09T18:26:43.171Z,9.02
2022-09-09T18:29:13.275Z,10.35
2022-09-09T18:31:42.552Z,6.88
2022-09-09T18:34:12.975Z,8.52
2022-09-09T18:36:44.419Z,8.00
2022-09-09T18:39:14.355Z,8.43
2022-09-09T18:41:51.719Z,8.32
2022-09-09T18:44:26.116Z,11.88
2022-09-09T18:46:54.509Z,12.50
2022-09-09T18:49:23.161Z,9.25
2022-09-09T18:51:50.856Z,12.85
2022-09-09T18:54:25.584Z,9.45
2022-09-09T18:56:53.279Z,15.23
2022-09-09T18:59:23.785Z,11.50
2022-09-09T19:01:52.650Z,13.57
2022-09-09T19:04:25.316Z,11.77
2022-09-09T19:06:58.025Z,11.52
2022-09-09T19:09:32.397Z,9.82
2022-09-09T19:12:01.304Z,10.00
2022-09-09T19:14:29.274Z,10.18
2022-09-09T19:16:56.891Z,12.50
2022-09-09T19:19:29.773Z,9.02
2022-09-09T19:21:57.964Z,13.23
2022-09-09T19:24:31.198Z,10.85
2022-09-09T19:27:03.089Z,11.25
2022-09-09T19:29:33.245Z,12.10
2022-09-09T19:32:42.754Z,10.77
2022-09-09T19:34:53.555Z,13.65
2022-09-09T19:37:22.449Z,14.63
2022-09-09T19:39:51.439Z,15.05
2022-09-09T19:42:19.367Z,10.85
2022-09-09T19:44:46.975Z,14.57
2022-09-09T19:47:15.102Z,12.82
2022-09-09T19:49:46.890Z,14.73
2022-09-09T19:52:16.190Z,16.30
2022-09-09T19:54:45.241Z,15.98
2022-09-09T19:57:12.847Z,15.55
2022-09-09T19:59:40.459Z,19.33
2022-09-09T20:02:09.400Z,16.50
2022-09-09T20:04:37.129Z,14.77
2022-09-09T20:07:04.694Z,15.25
2022-09-09T20:09:32.864Z,11.93
2022-09-09T20:12:00.778Z,11.20
2022-09-09T20:14:28.783Z,12.23
2022-09-09T20:16:57.334Z,10.32
2022-09-09T20:19:24.835Z,12.80
2022-09-09T20:21:52.586Z,12.52
2022-09-09T20:24:22.938Z,8.85
2022-09-09T20:26:51.797Z,11.40
2022-09-09T20:29:20.229Z,11.88
2022-09-09T20:31:48.429Z,14.30
2022-09-09T20:34:18.828Z,13.50
2022-09-09T20:36:47.068Z,12.13
2022-09-09T20:39:22.668Z,11.63
2022-09-09T20:41:50.405Z,16.02
2022-09-09T20:44:21.567Z,14.10
2022-09-09T20:46:52.694Z,13.73
2022-09-09T20:49:22.485Z,16.13
2022-09-09T20:51:50.999Z,13.10
2022-09-09T20:54:20.690Z,13.20
2022-09-09T20:56:50.389Z,14.85
2022-09-09T20:59:20.963Z,12.60
2022-09-09T21:01:48.933Z,16.13
2022-09-09T21:04:18.929Z,19.13
2022-09-09T21:06:49.965Z,15.05
2022-09-09T21:09:18.049Z,15.27
2022-09-09T21:11:47.203Z,16.40
2022-09-09T21:14:14.901Z,15.73
2022-09-09T21:16:42.566Z,15.52
2022-09-09T21:19:10.338Z,18.05
2022-09-09T21:21:37.912Z,17.33
2022-09-09T21:24:05.890Z,23.80
2022-09-09T21:26:33.730Z,17.70
2022-09-09T21:29:01.843Z,16.45
2022-09-09T21:31:29.636Z,15.45
2022-09-09T21:34:00.102Z,15.77
2022-09-09T21:36:28.824Z,13.50
2022-09-09T21:38:59.213Z,12.30
2022-09-09T21:41:27.412Z,13.95
2022-09-09T21:43:55.183Z,11.48
2022-09-09T21:46:23.655Z,11.13
2022-09-09T21:48:51.675Z,13.10
2022-09-09T21:51:19.331Z,13.15
2022-09-09T21:53:46.833Z,14.73
2022-09-09T21:56:17.203Z,10.13
2022-09-09T21:58:46.079Z,11.45
2022-09-09T22:01:16.931Z,11.43
2022-09-09T22:03:45.643Z,12.63
2022-09-09T22:06:17.581Z,12.93
2022-09-09T22:08:46.535Z,10.18
2022-09-09T22:11:20.050Z,14.88
2022-09-09T22:13:48.337Z,12.18
2022-09-09T22:16:19.014Z,11.20
2022-09-09T22:18:56.855Z,14.47
2022-09-09T22:21:29.966Z,14.75
2022-09-09T22:24:00.599Z,12.40
2022-09-09T22:26:30.947Z,10.38
2022-09-09T22:28:59.444Z,12.50
2022-09-09T22:31:28.193Z,11.27
2022-09-09T22:33:55.983Z,10.93
2022-09-09T22:36:24.145Z,10.30
2022-09-09T22:38:52.719Z,10.50
2022-09-09T22:41:20.955Z,12.75
2022-09-09T22:43:48.714Z,12.07
2022-09-09T22:46:16.877Z,12.05
2022-09-09T22:48:44.753Z,13.00
2022-09-09T22:51:14.270Z,15.43
2022-09-09T22:53:44.597Z,14.40
2022-09-09T22:56:17.920Z,13.48
2022-09-09T22:58:46.546Z,15.98
2022-09-09T23:01:17.028Z,14.45
2022-09-09T23:03:46.271Z,17.00
2022-09-09T23:06:22.882Z,12.60
2022-09-09T23:08:56.145Z,13.05
2022-09-09T23:11:28.083Z,13.40
2022-09-09T23:13:58.711Z,15.00
2022-09-09T23:16:41.429Z,11.45
2022-09-09T23:19:15.981Z,10.50
2022-09-09T23:21:46.174Z,13.70
2022-09-09T23:24:16.845Z,11.60
2022-09-09T23:26:45.627Z,15.57
2022-09-09T23:29:14.274Z,10.60
2022-09-09T23:31:44.941Z,13.35
2022-09-09T23:34:13.315Z,12.52
2022-09-09T23:36:41.494Z,13.77
2022-09-09T23:39:10.751Z,12.70
2022-09-09T23:41:40.200Z,11.82
2022-09-09T23:44:07.893Z,18.70
2022-09-09T23:46:35.759Z,15.40
2022-09-09T23:49:04.598Z,18.48
2022-09-09T23:51:33.970Z,13.60
2022-09-09T23:54:04.984Z,11.82
2022-09-09T23:56:38.854Z,13.50
2022-09-09T23:59:07.652Z,13.25
